Terminal Aerodrome Forecast
Issued by NWS Tulsa, OK

Home | Current Version | Previous Version | Text Only | Print | Product List | Glossary On
Versions: 1 2 3 4 5 6 7 8 9 10 11 12 13 14
000
FTUS44 KTSA 210500
TAFFSM
TAF
KFSM 210520Z 2106/2206 00000KT P6SM SKC
      TEMPO 2108/2112 4SM BR
     FM211900 34009KT P6SM SCT040
     FM220100 04003KT P6SM SKC=

USA.gov is the U.S. government's official web portal to all federal, state and local government web resources and services.